| Date | Time | Temp. (oF) | Dew Point (oF) | Rel. Hum. (%) | Press. (in.) | Wind Dir. | Wind Speed (mph) | Hourly Rainfall (in.) |
|
|---|---|---|---|---|---|---|---|---|---|
| 1 | 10/19 | 23:58 | 51 | 45 | 81 | 30.07 | SSE | 1 | 0.00 |
| 2 | 10/19 | 23:00 | 52 | 45 | 77 | 30.07 | SSE | 3 | 0.00 |
| 3 | 10/19 | 22:00 | 52 | 43 | 73 | 30.08 | SSE | 4 | 0.00 |
| 4 | 10/19 | 21:00 | 54 | 42 | 66 | 30.08 | S | 2 | 0.00 |
| 5 | 10/19 | 20:00 | 56 | 42 | 61 | 30.08 | SSE | 2 | 0.00 |
| 6 | 10/19 | 19:00 | 57 | 43 | 61 | 30.07 | S | 2 | 0.00 |
| 7 | 10/19 | 18:00 | 59 | 43 | 57 | 30.05 | SSE | 5 | 0.00 |
| 8 | 10/19 | 17:00 | 62 | 43 | 51 | 30.04 | S | 8 | 0.00 |
| 9 | 10/19 | 16:00 | 64 | 40 | 42 | 30.04 | SE | 10 | 0.00 |
| 10 | 10/19 | 15:00 | 64 | 39 | 40 | 30.06 | SSE | 6 | 0.00 |
| 11 | 10/19 | 14:00 | 63 | 38 | 40 | 30.10 | SSE | 7 | 0.00 |
| 12 | 10/19 | 13:00 | 61 | 38 | 43 | 30.13 | S | 12 | 0.00 |
| 13 | 10/19 | 12:00 | 58 | 39 | 50 | 30.17 | SSW | 10 | 0.00 |
| 14 | 10/19 | 11:00 | 53 | 39 | 61 | 30.20 | SSE | 5 | 0.00 |
| 15 | 10/19 | 10:00 | 49 | 39 | 71 | 30.21 | S | 4 | 0.00 |
| 16 | 10/19 | 09:00 | 42 | 39 | 92 | 30.23 | S | 2 | 0.00 |
| 17 | 10/19 | 08:00 | 38 | 35 | 92 | 30.22 | NNW | 0 | 0.00 |
| 18 | 10/19 | 07:00 | 35 | 33 | 95 | 30.22 | N | 1 | 0.00 |
| 19 | 10/19 | 06:00 | 35 | 33 | 93 | 30.22 | NNW | 0 | 0.00 |
| 20 | 10/19 | 05:00 | 36 | 34 | 94 | 30.22 | N | 0 | 0.00 |
| 21 | 10/19 | 04:00 | 36 | 34 | 93 | 30.23 | NNW | 0 | 0.00 |
| 22 | 10/19 | 03:00 | 37 | 35 | 93 | 30.23 | SE | 0 | 0.00 |
| 23 | 10/19 | 02:00 | 38 | 35 | 91 | 30.24 | ENE | 1 | 0.00 |
| 24 | 10/19 | 01:00 | 38 | 34 | 88 | 30.26 | NW | 1 | 0.00 |